Time;durP1;ratioP1;P1;durP2;ratioP2;P2;SDS_P1;SDS_P2;PMS_P1;PMS_P2;Temp;Humidity;BMP_temperature;BMP_pressure;BME280_temperature;BME280_humidity;BME280_pressure;Samples;Min_cycle;Max_cycle;Signal;HPM_P1;HPM_P2
2023/03/11 00:00:50;;;;;;;0.00;0.00;;;;;;;0.32;85.96;99734.19;6147508;23;20009;-78
2023/03/11 00:03:17;;;;;;;0.00;0.00;;;;;;;0.27;85.60;99731.34;6152383;23;20056;-78
2023/03/11 00:05:45;;;;;;;0.00;0.00;;;;;;;0.17;86.27;99704.91;6152111;23;20009;-78
2023/03/11 00:08:17;;;;;;;0.00;0.00;;;;;;;-0.01;85.92;99676.06;6178496;23;20319;-78
2023/03/11 00:10:44;;;;;;;0.00;0.00;;;;;;;-0.14;86.60;99670.75;6178144;23;20016;-78
2023/03/11 00:13:14;;;;;;;0.00;0.00;;;;;;;-0.14;86.77;99692.25;6149324;23;20009;-78
2023/03/11 00:15:42;;;;;;;0.00;0.00;;;;;;;-0.31;86.45;99676.59;6173959;23;20005;-78
2023/03/11 00:18:28;;;;;;;0.10;0.10;;;;;;;-0.32;86.52;99691.09;6155138;23;20005;-80
2023/03/11 00:20:55;;;;;;;0.00;0.00;;;;;;;-0.26;86.79;99689.44;6149591;23;20013;-79
2023/03/11 00:23:20;;;;;;;0.00;0.00;;;;;;;-0.15;86.62;99690.59;6159002;23;20011;-80
2023/03/11 00:25:51;;;;;;;0.00;0.00;;;;;;;-0.15;86.91;99685.22;6176102;23;20051;-77
2023/03/11 00:28:24;;;;;;;0.10;0.10;;;;;;;-0.17;86.68;99692.69;6180030;23;20024;-78
2023/03/11 00:30:49;;;;;;;0.00;0.00;;;;;;;-0.07;87.18;99712.69;6187270;23;20066;-78
2023/03/11 00:33:15;;;;;;;0.00;0.00;;;;;;;-0.02;86.91;99722.78;6212661;23;20008;-78
2023/03/11 00:35:41;;;;;;;0.10;0.10;;;;;;;-0.07;87.00;99720.75;6247413;22;20012;-76
2023/03/11 00:38:18;;;;;;;0.10;0.10;;;;;;;-0.05;87.00;99726.72;6217888;23;20007;-77
2023/03/11 00:40:46;;;;;;;0.10;0.10;;;;;;;-0.04;87.16;99724.88;6219238;23;20016;-78
2023/03/11 00:43:11;;;;;;;0.00;0.00;;;;;;;-0.04;86.97;99711.44;6246311;23;20000;-78
2023/03/11 00:45:37;;;;;;;0.00;0.00;;;;;;;-0.19;86.47;99696.41;6198425;23;20046;-77
2023/03/11 00:48:03;;;;;;;0.00;0.00;;;;;;;-0.21;87.21;99698.47;6222814;23;20092;-76
2023/03/11 00:50:32;;;;;;;0.10;0.10;;;;;;;-0.30;87.42;99694.38;6247436;23;20015;-78
2023/03/11 00:53:00;;;;;;;0.00;0.00;;;;;;;-0.34;87.66;99695.84;6243200;23;20090;-77
2023/03/11 00:55:32;;;;;;;0.10;0.10;;;;;;;-0.42;87.56;99690.72;6240655;23;20034;-78
2023/03/11 00:58:00;;;;;;;0.00;0.00;;;;;;;-0.46;87.31;99684.13;6243380;23;20000;-78
2023/03/11 01:00:27;;;;;;;0.00;0.00;;;;;;;-0.51;87.94;99697.34;6221283;23;20026;-77
2023/03/11 01:02:53;;;;;;;0.00;0.00;;;;;;;-0.56;87.31;99714.91;6218084;23;20446;-78
2023/03/11 01:05:22;;;;;;;0.00;0.00;;;;;;;-0.60;87.39;99715.53;6238000;23;20020;-76
2023/03/11 01:07:48;;;;;;;0.00;0.00;;;;;;;-0.62;87.80;99707.69;6240314;22;20052;-77
2023/03/11 01:10:16;;;;;;;0.10;0.10;;;;;;;-0.55;87.95;99713.06;6212468;23;20789;-78
2023/03/11 01:12:42;;;;;;;0.00;0.00;;;;;;;-0.60;87.73;99686.84;6212638;23;20088;-77
2023/03/11 01:15:13;;;;;;;0.10;0.10;;;;;;;-0.55;88.24;99686.22;6237280;23;20044;-76
2023/03/11 01:17:41;;;;;;;0.00;0.00;;;;;;;-0.49;87.88;99684.53;6213082;23;20000;-78
2023/03/11 01:20:09;;;;;;;0.00;0.00;;;;;;;-0.50;88.05;99686.38;6240018;23;20000;-77
2023/03/11 01:22:34;;;;;;;0.10;0.10;;;;;;;-0.44;87.83;99692.78;6213035;23;20061;-77
2023/03/11 01:25:02;;;;;;;0.10;0.10;;;;;;;-0.43;87.39;99700.63;6213805;23;20023;-78
2023/03/11 01:27:28;;;;;;;0.00;0.00;;;;;;;-0.41;87.77;99708.47;6209382;23;20095;-77
2023/03/11 01:29:53;;;;;;;0.10;0.10;;;;;;;-0.51;87.92;99708.94;6190382;23;20410;-77
2023/03/11 01:32:26;;;;;;;0.10;0.10;;;;;;;-0.55;87.93;99719.25;6208854;23;20008;-76
2023/03/11 01:34:51;;;;;;;0.00;0.00;;;;;;;-0.67;87.70;99704.84;6241450;22;20062;-79
2023/03/11 01:37:19;;;;;;;0.10;0.10;;;;;;;-0.86;87.88;99689.56;6210131;23;20008;-78
2023/03/11 01:39:44;;;;;;;0.00;0.00;;;;;;;-0.86;88.04;99684.19;6241205;23;20015;-79
2023/03/11 01:42:09;;;;;;;0.10;0.10;;;;;;;-0.88;88.67;99693.31;6216040;23;20012;-77
2023/03/11 01:44:35;;;;;;;0.00;0.00;;;;;;;-0.83;88.47;99697.19;6210504;23;20036;-75
2023/03/11 01:47:01;;;;;;;0.10;0.10;;;;;;;-0.85;88.93;99696.59;6216045;23;20331;-76
2023/03/11 01:49:26;;;;;;;0.00;0.00;;;;;;;-0.84;88.54;99692.88;6211028;23;20864;-76
2023/03/11 01:52:10;;;;;;;0.00;0.00;;;;;;;-0.80;89.21;99696.81;6215815;23;20016;-77
2023/03/11 01:54:40;;;;;;;0.00;0.00;;;;;;;-0.83;88.56;99699.88;6208959;23;20323;-75
2023/03/11 01:57:09;;;;;;;0.10;0.10;;;;;;;-0.74;88.55;99701.34;6227422;23;20472;-76
2023/03/11 01:59:52;;;;;;;0.00;0.00;;;;;;;-0.73;88.46;99697.59;6235334;23;20074;-77
2023/03/11 02:02:17;;;;;;;0.10;0.10;;;;;;;-0.51;89.22;99692.81;6235305;23;20507;-79
2023/03/11 02:04:44;;;;;;;0.00;0.00;;;;;;;-0.35;88.74;99670.03;6206054;23;20004;-77
2023/03/11 02:07:11;;;;;;;0.00;0.00;;;;;;;-0.33;87.82;99649.13;6217070;23;20007;-78
2023/03/11 02:09:37;;;;;;;0.00;0.00;;;;;;;-0.23;87.63;99652.19;6211434;23;20446;-78
2023/03/11 02:12:04;;;;;;;0.00;0.00;;;;;;;-0.19;87.44;99642.66;6189346;23;20012;-77
2023/03/11 02:14:34;;;;;;;0.00;0.00;;;;;;;-0.02;87.26;99677.09;6242143;23;20000;-78
2023/03/11 02:17:00;;;;;;;0.00;0.00;;;;;;;-0.06;86.46;99662.44;6210900;23;20009;-78
2023/03/11 02:19:28;;;;;;;0.00;0.00;;;;;;;-0.05;86.78;99674.84;6189523;23;20754;-78
2023/03/11 02:21:55;;;;;;;0.10;0.10;;;;;;;-0.32;87.25;99653.47;6237157;23;20004;-79
2023/03/11 02:25:10;;;;;;;;;;;;;;;;;;;;;
2023/03/11 02:27:43;;;;;;;0.10;0.10;;;;;;;-0.58;88.44;99649.03;6217850;23;20091;-78
2023/03/11 02:30:16;;;;;;;0.10;0.10;;;;;;;-0.69;87.98;99647.81;6239824;22;20074;-78
2023/03/11 02:32:46;;;;;;;0.10;0.10;;;;;;;-0.71;88.62;99629.22;6236338;23;20441;-78
2023/03/11 02:35:18;;;;;;;0.00;0.00;;;;;;;-0.73;89.01;99617.03;6214000;23;20015;-78
2023/03/11 02:37:45;;;;;;;0.10;0.10;;;;;;;-0.74;88.02;99607.38;6238282;22;20020;-78
2023/03/11 02:40:23;;;;;;;0.10;0.10;;;;;;;-0.79;88.76;99607.16;6216001;23;20016;-79
2023/03/11 02:42:53;;;;;;;0.10;0.10;;;;;;;-0.73;88.54;99619.72;6209161;23;20326;-79
2023/03/11 02:45:23;;;;;;;0.00;0.00;;;;;;;-0.85;88.73;99599.97;6214684;23;20721;-78
2023/03/11 02:47:56;;;;;;;0.10;0.10;;;;;;;-0.72;88.80;99626.75;6211417;23;20373;-77
2023/03/11 02:50:24;;;;;;;0.00;0.00;;;;;;;-0.64;88.58;99621.16;6209390;23;20388;-79
2023/03/11 02:52:50;;;;;;;0.10;0.10;;;;;;;-0.58;88.32;99617.63;6205589;23;20012;-78
2023/03/11 02:55:19;;;;;;;0.10;0.10;;;;;;;-0.56;88.28;99620.09;6214801;23;20000;-78
2023/03/11 02:57:46;;;;;;;0.00;0.00;;;;;;;-0.58;87.80;99616.81;6211781;23;20080;-79
2023/03/11 03:00:15;;;;;;;0.10;0.10;;;;;;;-0.38;88.05;99632.81;6210285;23;19996;-79
2023/03/11 03:02:42;;;;;;;0.10;0.10;;;;;;;-0.35;87.50;99621.66;6212891;23;20552;-79
2023/03/11 03:05:09;;;;;;;0.10;0.10;;;;;;;-0.42;87.58;99612.81;6211784;23;20004;-78
2023/03/11 03:07:35;;;;;;;0.00;0.00;;;;;;;-0.47;87.80;99612.63;6237237;23;21117;-79
2023/03/11 03:10:04;;;;;;;0.10;0.10;;;;;;;-0.65;88.02;99599.91;6238841;23;20008;-78
2023/03/11 03:12:29;;;;;;;0.10;0.10;;;;;;;-0.62;87.89;99610.22;6239609;23;20028;-78
2023/03/11 03:14:57;;;;;;;0.00;0.00;;;;;;;-0.69;88.55;99610.22;6240029;23;20058;-79
2023/03/11 03:17:23;;;;;;;0.10;0.10;;;;;;;-0.62;88.11;99613.72;6211333;23;20015;-81
2023/03/11 03:19:51;;;;;;;0.00;0.00;;;;;;;-0.56;87.98;99594.06;6213590;23;20004;-82
2023/03/11 03:22:24;;;;;;;0.00;0.00;;;;;;;-0.42;87.99;99596.69;6162499;23;20008;-80
2023/03/11 03:24:49;;;;;;;0.00;0.00;;;;;;;-0.23;87.67;99590.38;6213495;23;20426;-81
2023/03/11 03:27:17;;;;;;;0.00;0.00;;;;;;;-0.17;87.52;99579.81;6211293;23;20032;-80
2023/03/11 03:29:45;;;;;;;0.10;0.10;;;;;;;0.08;87.29;99598.69;6189762;23;20689;-78
2023/03/11 03:32:10;;;;;;;0.00;0.00;;;;;;;0.01;86.97;99582.56;6209498;23;20023;-79
2023/03/11 03:34:36;;;;;;;0.00;0.00;;;;;;;0.10;86.02;99589.34;6189949;23;20058;-79
2023/03/11 03:37:01;;;;;;;0.00;0.00;;;;;;;0.25;86.13;99605.16;6238910;23;20000;-79
2023/03/11 03:39:27;;;;;;;0.00;0.00;;;;;;;0.22;86.16;99616.38;6235538;23;20057;-78
2023/03/11 03:41:52;;;;;;;0.00;0.00;;;;;;;0.11;86.37;99619.75;6240644;23;20071;-80
2023/03/11 03:44:18;;;;;;;0.00;0.00;;;;;;;0.05;86.17;99615.25;6235120;23;20008;-80
2023/03/11 03:46:43;;;;;;;0.00;0.00;;;;;;;-0.17;86.26;99595.94;6214106;23;20038;-79
2023/03/11 03:49:09;;;;;;;0.10;0.10;;;;;;;-0.22;86.78;99589.34;6211542;23;20030;-78
2023/03/11 03:51:34;;;;;;;0.10;0.10;;;;;;;-0.20;86.79;99598.00;6212683;23;20820;-79
2023/03/11 03:54:02;;;;;;;0.10;0.10;;;;;;;-0.34;86.34;99591.06;6189021;23;20091;-79
2023/03/11 03:56:30;;;;;;;0.00;0.00;;;;;;;-0.57;87.10;99578.16;6184168;23;20019;-79
2023/03/11 03:58:58;;;;;;;0.00;0.00;;;;;;;-0.54;86.84;99592.00;6215326;23;20366;-79
2023/03/11 04:01:24;;;;;;;0.00;0.00;;;;;;;-0.52;86.40;99596.34;6237607;23;20419;-79
2023/03/11 04:03:49;;;;;;;0.10;0.10;;;;;;;-0.59;86.72;99589.09;6191492;23;20004;-78
2023/03/11 04:06:21;;;;;;;0.10;0.10;;;;;;;-0.64;87.52;99580.88;6212196;23;20093;-79
2023/03/11 04:08:50;;;;;;;0.00;0.00;;;;;;;-0.50;87.24;99605.00;6215621;23;20035;-79
2023/03/11 04:11:18;;;;;;;0.10;0.10;;;;;;;-0.46;86.78;99598.16;6212698;23;19996;-78
2023/03/11 04:13:44;;;;;;;0.00;0.00;;;;;;;-0.32;86.86;99599.75;6215432;23;20714;-78
2023/03/11 04:16:14;;;;;;;0.00;0.00;;;;;;;-0.15;86.72;99609.97;6216111;23;20647;-79
2023/03/11 04:18:40;;;;;;;0.10;0.10;;;;;;;-0.03;86.17;99613.63;6218544;23;20030;-80
2023/03/11 04:21:13;;;;;;;0.10;0.10;;;;;;;0.17;85.81;99629.63;6232954;23;20411;-80
2023/03/11 04:23:41;;;;;;;0.00;0.00;;;;;;;0.21;85.52;99624.66;6241512;23;20010;-79
2023/03/11 04:26:07;;;;;;;0.00;0.00;;;;;;;0.43;85.07;99647.44;6238228;22;20022;-79
2023/03/11 04:28:37;;;;;;;0.00;0.00;;;;;;;0.49;85.00;99637.69;6214398;23;20028;-78
2023/03/11 04:31:06;;;;;;;0.00;0.00;;;;;;;0.47;85.18;99635.22;6209186;23;20020;-79
2023/03/11 04:33:31;;;;;;;0.00;0.00;;;;;;;0.63;84.65;99659.94;6190151;23;20023;-80
2023/03/11 04:35:57;;;;;;;0.10;0.10;;;;;;;0.59;84.26;99642.56;6210792;23;20012;-79
2023/03/11 04:38:33;;;;;;;;;;;;;;;;;;;;;
2023/03/11 04:41:04;;;;;;;0.00;0.00;;;;;;;0.69;83.96;99649.09;6237449;23;20494;-80
2023/03/11 04:43:30;;;;;;;0.00;0.00;;;;;;;0.74;84.14;99651.13;6239753;22;20082;-80
2023/03/11 04:45:56;;;;;;;0.00;0.00;;;;;;;0.69;84.37;99642.91;6212029;23;20054;-81
2023/03/11 04:48:21;;;;;;;0.00;0.00;;;;;;;0.81;83.68;99659.97;6239836;23;20000;-80
2023/03/11 04:50:54;;;;;;;0.00;0.00;;;;;;;0.82;83.90;99642.78;6241083;23;20010;-79
2023/03/11 04:53:25;;;;;;;0.00;0.00;;;;;;;0.83;83.72;99644.44;6165054;23;20757;-79
2023/03/11 04:55:52;;;;;;;0.10;0.10;;;;;;;0.84;83.57;99637.19;6240742;23;20015;-79
2023/03/11 04:58:20;;;;;;;0.00;0.00;;;;;;;0.90;83.59;99638.16;6160859;23;20091;-79
2023/03/11 05:00:46;;;;;;;0.00;0.00;;;;;;;0.92;83.41;99619.91;6214068;23;20011;-79
2023/03/11 05:03:11;;;;;;;0.00;0.00;;;;;;;0.91;83.15;99615.59;6235304;23;20025;-80
2023/03/11 05:05:37;;;;;;;0.00;0.00;;;;;;;0.91;83.01;99623.66;6242081;23;20004;-79
2023/03/11 05:08:02;;;;;;;0.10;0.10;;;;;;;0.86;83.20;99602.78;6208137;22;20371;-79
2023/03/11 05:10:31;;;;;;;0.10;0.10;;;;;;;0.74;82.84;99578.47;6213719;23;20004;-78
2023/03/11 05:12:56;;;;;;;0.00;0.00;;;;;;;0.73;82.76;99587.59;6240639;23;20024;-78
2023/03/11 05:15:22;;;;;;;0.00;0.00;;;;;;;0.79;82.83;99600.16;6207475;23;20014;-78
2023/03/11 05:17:50;;;;;;;0.10;0.10;;;;;;;0.71;82.79;99607.69;6212588;23;20008;-78
2023/03/11 05:20:15;;;;;;;0.00;0.00;;;;;;;0.58;82.62;99603.25;6234050;23;20007;-78
2023/03/11 05:22:43;;;;;;;0.00;0.00;;;;;;;0.62;82.81;99628.69;6213572;23;20008;-78
2023/03/11 05:25:08;;;;;;;0.10;0.10;;;;;;;0.64;82.61;99630.13;6233712;23;20092;-77
2023/03/11 05:27:37;;;;;;;0.00;0.00;;;;;;;0.59;82.76;99629.13;6187164;23;20028;-77
2023/03/11 05:30:03;;;;;;;0.10;0.10;;;;;;;0.80;82.48;99652.94;6212947;23;20017;-78
2023/03/11 05:32:28;;;;;;;0.00;0.00;;;;;;;0.82;82.04;99633.91;6207682;23;20004;-77
2023/03/11 05:34:54;;;;;;;0.10;0.10;;;;;;;0.88;82.36;99646.47;6188239;23;20008;-78
2023/03/11 05:37:22;;;;;;;0.00;0.00;;;;;;;0.86;82.65;99635.91;6234254;23;20018;-78
2023/03/11 05:39:48;;;;;;;0.00;0.00;;;;;;;0.84;81.86;99627.22;6189355;23;20033;-78
2023/03/11 05:42:15;;;;;;;0.00;0.00;;;;;;;1.03;81.87;99654.19;6208099;23;20373;-79
2023/03/11 05:44:41;;;;;;;0.00;0.00;;;;;;;1.07;81.17;99659.94;6213915;23;20065;-79
2023/03/11 05:47:07;;;;;;;0.00;0.00;;;;;;;1.08;81.13;99662.44;6210760;23;20075;-79
2023/03/11 05:49:34;;;;;;;0.00;0.00;;;;;;;1.12;81.13;99658.22;6211752;23;20000;-78
2023/03/11 05:52:05;;;;;;;0.00;0.00;;;;;;;1.06;80.87;99642.97;6239383;23;20095;-78
2023/03/11 05:54:38;;;;;;;0.00;0.00;;;;;;;1.10;81.16;99640.66;6208673;23;20430;-77
2023/03/11 05:57:03;;;;;;;0.00;0.00;;;;;;;1.22;80.82;99663.91;6213185;23;20015;-79
2023/03/11 05:59:34;;;;;;;0.00;0.00;;;;;;;1.28;80.84;99672.16;6181908;23;20008;-79
2023/03/11 06:02:02;;;;;;;0.00;0.00;;;;;;;1.18;80.80;99656.50;6239402;23;20367;-79
2023/03/11 06:04:30;;;;;;;0.00;0.00;;;;;;;1.10;80.69;99641.47;6233308;23;20004;-78
2023/03/11 06:06:56;;;;;;;0.10;0.10;;;;;;;1.27;80.57;99655.19;6214046;23;19999;-79
2023/03/11 06:09:24;;;;;;;0.00;0.00;;;;;;;1.36;80.38;99658.41;6184200;23;20094;-79
2023/03/11 06:11:52;;;;;;;0.00;0.00;;;;;;;1.41;80.73;99649.66;6212555;23;20076;-79
2023/03/11 06:14:17;;;;;;;0.00;0.00;;;;;;;1.50;79.89;99662.56;6213808;23;20032;-79
2023/03/11 06:16:43;;;;;;;0.00;0.00;;;;;;;1.41;80.33;99637.00;6233368;23;20011;-79
2023/03/11 06:19:11;;;;;;;0.00;0.00;;;;;;;1.58;80.08;99674.94;6188202;23;20018;-78
2023/03/11 06:21:39;;;;;;;0.00;0.00;;;;;;;1.50;79.92;99670.66;6233330;23;20000;-78
2023/03/11 06:24:05;;;;;;;0.00;0.00;;;;;;;1.45;79.64;99673.22;6238014;23;20008;-79
2023/03/11 06:26:34;;;;;;;0.00;0.00;;;;;;;1.53;79.71;99669.41;6236863;23;20012;-79
2023/03/11 06:29:02;;;;;;;0.00;0.00;;;;;;;1.44;79.66;99660.78;6208662;23;20334;-78
2023/03/11 06:31:31;;;;;;;0.00;0.00;;;;;;;1.48;79.24;99661.19;6176938;23;20087;-79
2023/03/11 06:34:06;;;;;;;;;;;;;;;;;;;;;
2023/03/11 06:36:32;;;;;;;0.00;0.00;;;;;;;1.61;79.28;99673.66;6214837;23;20403;-79
2023/03/11 06:39:10;;;;;;;;;;;;;;;;;;;;;
2023/03/11 06:41:38;;;;;;;0.00;0.00;;;;;;;1.55;79.08;99662.75;6239832;23;20083;-77
2023/03/11 06:44:11;;;;;;;0.00;0.00;;;;;;;1.60;79.71;99664.75;6206804;23;20015;-78
2023/03/11 06:46:36;;;;;;;0.00;0.00;;;;;;;1.64;79.23;99682.13;6238755;23;20007;-78
2023/03/11 06:49:05;;;;;;;0.00;0.00;;;;;;;1.63;79.13;99672.38;6206668;23;20012;-78
2023/03/11 06:51:43;;;;;;;;;;;;;;;;;;;;;
2023/03/11 06:54:32;;;;;;;0.00;0.00;;;;;;;1.75;78.71;99694.00;6209411;23;20094;-79
2023/03/11 06:57:11;;;;;;;0.00;0.00;;;;;;;1.74;78.93;99705.88;6237750;23;20000;-79
2023/03/11 06:59:55;;;;;;;;;;;;;;;;;;;;;
2023/03/11 07:02:21;;;;;;;0.03;0.03;;;;;;;1.88;79.05;99711.91;6237611;23;20087;-78
2023/03/11 07:04:57;;;;;;;0.00;0.00;;;;;;;1.98;79.10;99711.38;6208375;23;20027;-79
2023/03/11 07:07:22;;;;;;;0.10;0.10;;;;;;;1.92;79.17;99705.81;6237954;23;19996;-78
2023/03/11 07:09:48;;;;;;;0.00;0.00;;;;;;;2.00;79.30;99714.66;6207911;23;20010;-78
2023/03/11 07:12:21;;;;;;;0.00;0.00;;;;;;;1.79;79.14;99684.44;6212550;23;20499;-78
2023/03/11 07:15:04;;;;;;;0.00;0.00;;;;;;;2.10;78.76;99720.34;6182611;23;20008;-79
2023/03/11 07:17:34;;;;;;;0.00;0.00;;;;;;;1.90;78.70;99666.69;6240946;23;20004;-79
2023/03/11 07:20:00;;;;;;;0.00;0.00;;;;;;;2.08;78.69;99692.78;6215632;23;20061;-78
2023/03/11 07:22:31;;;;;;;0.00;0.00;;;;;;;2.19;78.61;99704.66;6246395;23;20067;-78
2023/03/11 07:24:57;;;;;;;0.00;0.00;;;;;;;2.26;78.51;99695.44;6217789;23;20008;-78
2023/03/11 07:27:23;;;;;;;0.10;0.10;;;;;;;2.44;78.09;99718.03;6215863;23;20433;-77
2023/03/11 07:29:51;;;;;;;0.00;0.00;;;;;;;2.53;78.55;99711.25;6218937;22;20015;-78
2023/03/11 07:32:19;;;;;;;0.00;0.00;;;;;;;2.78;77.93;99726.44;6216205;23;20067;-79
2023/03/11 07:34:46;;;;;;;0.00;0.00;;;;;;;2.93;77.21;99743.00;6169224;23;20012;-77
2023/03/11 07:37:22;;;;;;;0.00;0.00;;;;;;;3.07;76.99;99749.03;6217473;23;20015;-76
2023/03/11 07:39:55;;;;;;;0.00;0.00;;;;;;;3.09;77.21;99729.91;6213979;23;20007;-76
2023/03/11 07:42:49;;;;;;;0.00;0.00;;;;;;;3.20;76.06;99729.09;6246416;23;20008;-77
2023/03/11 07:45:55;;;;;;;0.10;0.10;;;;;;;3.30;76.29;99733.88;6211549;23;20034;-77
2023/03/11 07:48:21;;;;;;;0.00;0.00;;;;;;;3.22;76.72;99702.63;6154545;23;20059;-78
2023/03/11 07:51:31;;;;;;;0.00;0.00;;;;;;;3.41;76.44;99697.13;6234999;23;20115;-77
2023/03/11 07:54:07;;;;;;;0.00;0.00;;;;;;;3.59;76.38;99679.91;6242146;23;20458;-77
2023/03/11 08:06:57;;;;;;;0.00;0.00;;;;;;;4.16;73.57;99722.44;6010730;23;20120;-77
2023/03/11 08:12:59;;;;;;;0.00;0.00;;;;;;;4.57;73.34;99712.41;6019528;23;20098;-79
2023/03/11 08:15:51;;;;;;;0.00;0.00;;;;;;;4.67;73.41;99717.16;6005946;23;20027;-82
2023/03/11 08:18:34;;;;;;;0.00;0.00;;;;;;;4.97;73.27;99722.28;6102991;23;20010;-74
2023/03/11 08:21:22;;;;;;;0.00;0.00;;;;;;;5.28;71.80;99739.03;6121662;23;20017;-76
2023/03/11 08:23:57;;;;;;;0.00;0.00;;;;;;;5.36;72.21;99729.63;6124838;23;20010;-75
2023/03/11 08:26:56;;;;;;;;;;;;;;;;;;;;;
2023/03/11 08:29:38;;;;;;;0.00;0.00;;;;;;;5.92;70.86;99735.84;6237335;23;20039;-79
2023/03/11 08:32:49;;;;;;;0.00;0.00;;;;;;;6.14;70.58;99729.63;6237910;23;20115;-76
2023/03/11 08:36:12;;;;;;;0.00;0.00;;;;;;;6.28;69.29;99705.63;6239223;22;20012;-76
2023/03/11 08:39:23;;;;;;;0.10;0.10;;;;;;;6.67;67.03;99750.84;6240264;23;20005;-75
2023/03/11 08:42:13;;;;;;;;;;;;;;;;;;;;;
2023/03/11 09:03:20;;;;;;;;;;;;;;;;;;;;;
2023/03/11 09:21:01;;;;;;;;;;;;;;;;;;;;;
2023/03/11 09:23:58;;;;;;;;;;;;;;;;;;;;;
2023/03/11 09:27:06;;;;;;;;;;;;;;;;;;;;;
2023/03/11 09:36:46;;;;;;;;;;;;;;;;;;;;;
2023/03/11 09:43:04;;;;;;;0.00;0.00;;;;;;;10.89;52.77;99756.97;6053625;23;20081;-77
2023/03/11 09:46:04;;;;;;;;;;;;;;;;;;;;;
2023/03/11 09:49:25;;;;;;;;;;;;;;;;;;;;;
2023/03/11 10:16:58;;;;;;;0.00;0.00;;;;;;;14.58;44.24;99732.69;6060875;23;20017;-76
2023/03/11 10:19:40;;;;;;;0.00;0.00;;;;;;;13.85;44.70;99736.13;6064919;23;20421;-77
2023/03/11 10:22:12;;;;;;;0.00;0.00;;;;;;;12.80;45.56;99734.59;6064742;23;20057;-79
2023/03/11 10:24:53;;;;;;;0.00;0.00;;;;;;;11.99;48.06;99721.72;6056510;23;20038;-79
2023/03/11 10:27:31;;;;;;;0.00;0.00;;;;;;;11.68;48.85;99737.66;6198107;23;20004;-77
2023/03/11 10:30:08;;;;;;;0.00;0.00;;;;;;;11.06;50.51;99726.47;6239458;23;20047;-78
2023/03/11 10:32:43;;;;;;;0.00;0.00;;;;;;;10.37;51.50;99718.22;6235850;22;20027;-77
2023/03/11 10:35:19;;;;;;;0.00;0.00;;;;;;;9.72;53.06;99716.25;6240586;23;20004;-77
2023/03/11 10:37:55;;;;;;;0.00;0.00;;;;;;;9.34;54.53;99699.41;6242265;23;20000;-78
2023/03/11 11:14:25;;;;;;;0.00;0.00;;;;;;;9.67;54.13;99703.44;6117458;23;20050;-77
2023/03/11 11:17:42;;;;;;;;;;;;;;;;;;;;;
2023/03/11 11:52:13;;;;;;;0.00;0.00;;;;;;;10.71;49.33;99684.63;5944054;24;19932;-77
2023/03/11 12:08:28;;;;;;;0.00;0.00;;;;;;;12.44;45.65;99721.44;5869916;24;20018;-78
2023/03/11 12:11:26;;;;;;;0.00;0.00;;;;;;;11.81;46.71;99703.28;5845168;24;20094;-77
2023/03/11 12:14:16;;;;;;;;;;;;;;;;;;;;;
2023/03/11 12:17:21;;;;;;;0.00;0.00;;;;;;;10.18;48.69;99699.69;6072859;23;20097;-77
2023/03/11 12:20:23;;;;;;;0.00;0.00;;;;;;;9.55;50.65;99671.00;6180531;23;20115;-77
2023/03/11 12:36:14;;;;;;;;;;;;;;;;;;;;;
2023/03/11 12:38:47;;;;;;;0.00;0.00;;;;;;;8.61;55.02;99684.97;6203944;23;20392;-77
2023/03/11 12:41:48;;;;;;;0.00;0.00;;;;;;;8.08;56.54;99679.66;6208222;23;20008;-78
2023/03/11 12:44:45;;;;;;;;;;;;;;;;;;;;;
2023/03/11 12:47:30;;;;;;;;;;;;;;;;;;;;;
2023/03/11 12:50:57;;;;;;;;;;;;;;;;;;;;;
2023/03/11 12:53:54;;;;;;;;;;;;;;;;;;;;;
2023/03/11 12:57:14;;;;;;;;;;;;;;;;;;;;;
2023/03/11 13:07:16;;;;;;;0.00;0.00;;;;;;;8.20;58.64;99636.66;6205710;23;20067;-78
2023/03/11 13:09:41;;;;;;;0.00;0.00;;;;;;;8.28;58.92;99639.94;6209018;23;20009;-77
2023/03/11 13:12:46;;;;;;;0.00;0.00;;;;;;;8.50;59.31;99642.47;6180388;23;20011;-76
2023/03/11 13:15:17;;;;;;;0.00;0.00;;;;;;;8.57;58.62;99632.09;6236142;23;20030;-75
2023/03/11 13:18:11;;;;;;;0.00;0.00;;;;;;;8.53;58.68;99628.31;6211519;23;20011;-77
2023/03/11 13:20:42;;;;;;;0.00;0.00;;;;;;;8.52;59.28;99641.09;6231093;23;20004;-76
2023/03/11 13:23:20;;;;;;;0.10;0.10;;;;;;;8.35;60.13;99635.88;6210017;23;20001;-76
2023/03/11 13:25:53;;;;;;;0.00;0.00;;;;;;;8.22;60.63;99625.53;6211105;23;20000;-80
2023/03/11 13:28:19;;;;;;;0.00;0.00;;;;;;;8.11;62.02;99619.22;6235305;23;20000;-78
2023/03/11 13:31:13;;;;;;;0.00;0.00;;;;;;;8.09;62.42;99615.97;6208445;22;20075;-77
2023/03/11 13:33:54;;;;;;;0.00;0.00;;;;;;;7.89;63.04;99622.16;6185039;23;20442;-76
2023/03/11 13:36:28;;;;;;;0.00;0.00;;;;;;;7.81;63.68;99609.91;6214470;23;20316;-77
2023/03/11 13:39:03;;;;;;;;;;;;;;;7.89;63.56;99599.59;6237526;23;20154;-76
2023/03/11 13:41:32;;;;;;;0.00;0.00;;;;;;;7.83;64.20;99609.63;6239719;23;19903;-81
2023/03/11 13:44:11;;;;;;;0.00;0.00;;;;;;;7.92;64.26;99599.03;6210144;23;20008;-80
2023/03/11 13:46:42;;;;;;;0.00;0.00;;;;;;;7.78;64.38;99596.84;6217164;23;20444;-78
2023/03/11 13:49:34;;;;;;;0.10;0.10;;;;;;;7.89;64.16;99594.13;6237693;23;20107;-76
2023/03/11 13:52:02;;;;;;;0.00;0.00;;;;;;;8.24;63.72;99601.53;6212301;23;20334;-76
2023/03/11 13:54:41;;;;;;;0.00;0.00;;;;;;;8.51;63.41;99600.50;6242312;23;20000;-77
2023/03/11 13:57:46;;;;;;;0.00;0.00;;;;;;;8.51;62.60;99595.88;6206336;23;20402;-76
2023/03/11 14:00:22;;;;;;;0.00;0.00;;;;;;;7.82;62.43;99600.63;6199073;23;20079;-78
2023/03/11 14:02:53;;;;;;;0.00;0.00;;;;;;;7.24;63.53;99605.28;6241828;23;20004;-78
2023/03/11 14:05:28;;;;;;;0.00;0.00;;;;;;;6.88;64.56;99597.75;6236653;23;20000;-78
2023/03/11 14:07:54;;;;;;;0.00;0.00;;;;;;;6.95;65.59;99602.94;6237424;22;20083;-76
2023/03/11 14:10:21;;;;;;;0.00;0.00;;;;;;;7.11;66.06;99601.13;6242207;23;20445;-78
2023/03/11 14:12:47;;;;;;;0.00;0.00;;;;;;;6.95;66.07;99597.50;6240923;22;20004;-79
2023/03/11 14:15:25;;;;;;;0.00;0.00;;;;;;;6.97;65.61;99601.59;6188216;23;20103;-78
2023/03/11 14:17:52;;;;;;;0.00;0.00;;;;;;;7.02;66.01;99586.41;6239369;23;20008;-77
2023/03/11 14:27:33;;;;;;;0.00;0.00;;;;;;;6.61;65.85;99608.69;6137803;23;20034;-78
2023/03/11 14:30:15;;;;;;;;;;;;;;;;;;;;;
2023/03/11 14:40:46;;;;;;;0.00;0.00;;;;;;;6.63;66.35;99579.38;6152297;23;20028;-77
2023/03/11 14:43:19;;;;;;;0.00;0.00;;;;;;;6.87;67.25;99551.81;6151972;23;20048;-82
2023/03/11 15:04:25;;;;;;;;;;;;;;;;;;;;;
2023/03/11 15:07:29;;;;;;;0.00;0.00;;;;;;;6.05;71.93;99520.25;5947793;24;20108;-79
2023/03/11 15:12:48;;;;;;;0.00;0.00;;;;;;;5.94;72.93;99510.34;5967450;23;20003;-79
2023/03/11 15:15:33;;;;;;;0.00;0.00;;;;;;;5.95;73.08;99520.13;6180168;23;20036;-78
2023/03/11 15:18:00;;;;;;;0.00;0.00;;;;;;;6.08;73.08;99536.03;6174392;23;20009;-77
2023/03/11 15:20:33;;;;;;;0.00;0.00;;;;;;;6.08;73.23;99541.44;6200397;23;20004;-78
2023/03/11 15:23:18;;;;;;;0.00;0.00;;;;;;;6.04;73.35;99534.91;6180167;23;20016;-78
2023/03/11 15:25:47;;;;;;;;;;;;;;;6.11;72.96;99545.56;6208533;23;20007;-79
2023/03/11 15:28:19;;;;;;;0.00;0.00;;;;;;;6.09;73.17;99537.66;6208902;23;20374;-77
2023/03/11 15:30:45;;;;;;;0.00;0.00;;;;;;;6.00;73.72;99539.22;6206088;23;20011;-77
2023/03/11 15:33:32;;;;;;;0.00;0.00;;;;;;;5.88;73.88;99508.66;6183880;23;20401;-77
2023/03/11 15:35:57;;;;;;;0.00;0.00;;;;;;;5.84;74.43;99512.97;6183263;23;20020;-75
2023/03/11 15:38:25;;;;;;;0.10;0.10;;;;;;;5.81;74.33;99527.88;6158503;23;20083;-76
2023/03/11 15:41:02;;;;;;;0.00;0.00;;;;;;;5.73;75.10;99526.44;6203477;23;20016;-76
2023/03/11 15:43:30;;;;;;;0.00;0.00;;;;;;;5.76;75.18;99523.22;6209710;23;20308;-76
2023/03/11 15:45:59;;;;;;;0.00;0.00;;;;;;;5.84;75.61;99523.81;6206382;23;20611;-78
2023/03/11 15:48:27;;;;;;;0.10;0.10;;;;;;;5.87;75.41;99515.16;6211213;23;20075;-73
2023/03/11 15:50:55;;;;;;;0.10;0.10;;;;;;;5.72;76.55;99500.41;6179762;23;20013;-74
2023/03/11 15:53:30;;;;;;;0.00;0.00;;;;;;;5.51;77.26;99482.28;6183737;23;20438;-75
2023/03/11 15:56:01;;;;;;;0.00;0.00;;;;;;;5.44;78.61;99476.25;6205576;23;20367;-77
2023/03/11 15:58:27;;;;;;;0.00;0.00;;;;;;;5.28;80.24;99484.19;6210787;23;19996;-77
2023/03/11 16:00:55;;;;;;;0.00;0.00;;;;;;;5.19;82.49;99486.53;6155751;23;20383;-74
2023/03/11 16:03:21;;;;;;;0.00;0.00;;;;;;;5.04;84.19;99503.44;6208865;23;20004;-75
2023/03/11 16:05:46;;;;;;;0.00;0.00;;;;;;;4.78;86.74;99488.75;6185047;23;20489;-76
2023/03/11 16:08:12;;;;;;;0.00;0.00;;;;;;;4.71;88.44;99494.31;6154290;23;20001;-75
2023/03/11 16:10:39;;;;;;;0.00;0.00;;;;;;;4.68;89.70;99497.53;6182146;23;20008;-73
2023/03/11 16:13:09;;;;;;;0.00;0.00;;;;;;;4.68;90.58;99475.06;6180010;23;20445;-76
2023/03/11 16:15:36;;;;;;;0.00;0.00;;;;;;;4.77;91.39;99491.69;6185138;23;20055;-79
2023/03/11 16:18:04;;;;;;;0.00;0.00;;;;;;;4.62;91.55;99476.06;6182110;23;20016;-79
2023/03/11 16:21:01;;;;;;;0.00;0.00;;;;;;;4.69;93.04;99491.06;6183997;23;20308;-77